Time;durP1;ratioP1;P1;durP2;ratioP2;P2;SDS_P1;SDS_P2;PMS_P1;PMS_P2;Temp;Humidity;BMP_temperature;BMP_pressure;BME280_temperature;BME280_humidity;BME280_pressure;Samples;Min_cycle;Max_cycle;Signal;HPM_P1;HPM_P2
2023/06/23 00:00:15;;;;;;;14.25;8.90;;;;;;;28.55;55.56;99417.25;4354155;32;34827;-61
2023/06/23 00:02:43;;;;;;;13.68;9.93;;;;;;;28.55;55.55;99412.56;4347637;32;33256;-61
2023/06/23 00:05:12;;;;;;;9.93;7.78;;;;;;;28.37;55.93;99406.31;4356703;32;34130;-61
2023/06/23 00:07:40;;;;;;;11.35;8.75;;;;;;;28.67;55.07;99411.72;4352531;32;35551;-61
2023/06/23 00:10:10;;;;;;;12.13;9.00;;;;;;;28.54;55.36;99408.16;4355210;32;34218;-61
2023/06/23 00:12:41;;;;;;;11.05;8.48;;;;;;;28.61;55.16;99407.19;4351988;32;34512;-61
2023/06/23 00:15:11;;;;;;;11.18;7.75;;;;;;;28.64;55.04;99403.97;4345760;32;33753;-61
2023/06/23 00:17:39;;;;;;;13.48;8.50;;;;;;;28.62;55.04;99406.94;4348873;32;34134;-61
2023/06/23 00:20:13;;;;;;;16.33;10.00;;;;;;;28.58;55.14;99392.00;4354604;32;34833;-61
2023/06/23 00:22:41;;;;;;;12.88;9.32;;;;;;;28.62;55.07;99395.94;4361392;32;33961;-61
2023/06/23 00:25:09;;;;;;;11.50;8.43;;;;;;;28.76;54.54;99394.62;4348992;32;33544;-61
2023/06/23 00:27:38;;;;;;;11.48;7.72;;;;;;;28.65;54.84;99403.72;4345922;32;34100;-61
2023/06/23 00:30:06;;;;;;;12.45;8.57;;;;;;;28.68;54.67;99405.16;4348705;32;33586;-61
2023/06/23 00:32:34;;;;;;;15.07;8.73;;;;;;;28.83;54.30;99408.25;4354624;32;33382;-61
2023/06/23 00:35:03;;;;;;;19.45;8.80;;;;;;;28.76;54.43;99413.03;4352705;32;33593;-61
2023/06/23 00:37:31;;;;;;;15.63;9.38;;;;;;;28.87;54.08;99412.19;4347605;32;33894;-61
2023/06/23 00:39:58;;;;;;;13.25;10.90;;;;;;;28.60;54.93;99413.75;4360430;32;34472;-61
2023/06/23 00:42:26;;;;;;;14.93;9.73;;;;;;;28.73;54.48;99411.63;4355766;32;33990;-61
2023/06/23 00:44:54;;;;;;;14.10;8.63;;;;;;;28.55;54.80;99411.75;4352539;32;33834;-61
2023/06/23 00:47:21;;;;;;;15.65;8.07;;;;;;;28.67;54.53;99408.97;4346037;32;34880;-61
2023/06/23 00:49:49;;;;;;;14.87;11.32;;;;;;;28.70;54.38;99413.97;4354080;32;34774;-61
2023/06/23 00:52:18;;;;;;;11.70;8.80;;;;;;;28.74;54.36;99420.72;4350180;32;33496;-61
2023/06/23 00:54:49;;;;;;;11.75;8.57;;;;;;;28.86;54.04;99412.41;4350714;32;33901;-61
2023/06/23 00:57:17;;;;;;;12.40;9.30;;;;;;;28.93;53.71;99397.44;4354474;32;33775;-61
2023/06/23 00:59:45;;;;;;;10.45;7.60;;;;;;;28.94;53.65;99390.84;4355517;32;34716;-61
2023/06/23 01:02:13;;;;;;;15.75;11.32;;;;;;;29.01;53.38;99383.31;4350492;32;33805;-62
2023/06/23 01:04:47;;;;;;;13.50;8.23;;;;;;;28.88;53.67;99379.97;4354484;32;34023;-61
2023/06/23 01:07:40;;;;;;;14.77;8.90;;;;;;;28.90;53.62;99377.81;4349036;32;34821;-61
2023/06/23 01:10:12;;;;;;;13.18;9.20;;;;;;;28.86;53.53;99374.72;4308437;33;34426;-61
2023/06/23 01:12:49;;;;;;;13.57;9.65;;;;;;;28.56;54.41;99375.69;4299827;33;33512;-61
2023/06/23 01:15:23;;;;;;;14.60;9.40;;;;;;;28.58;54.27;99372.72;4283445;33;33943;-61
2023/06/23 01:18:16;;;;;;;16.08;9.52;;;;;;;28.28;55.07;99364.53;4274867;33;33919;-61
2023/06/23 01:20:46;;;;;;;12.57;8.70;;;;;;;28.29;54.98;99364.31;4275942;33;33993;-61
2023/06/23 01:23:20;;;;;;;16.10;8.88;;;;;;;28.02;55.74;99374.09;4300045;33;33876;-61
2023/06/23 01:26:09;;;;;;;10.52;7.87;;;;;;;28.21;55.25;99366.59;4274893;33;34760;-60
2023/06/23 01:28:50;;;;;;;12.60;9.07;;;;;;;28.09;55.61;99367.44;4286289;33;33911;-61
2023/06/23 01:31:31;;;;;;;16.48;9.80;;;;;;;27.96;55.94;99362.16;4283577;33;35286;-61
2023/06/23 01:34:02;;;;;;;12.73;9.00;;;;;;;27.90;56.12;99357.62;4301325;33;34314;-62
2023/06/23 01:36:37;;;;;;;16.02;8.23;;;;;;;27.67;56.76;99360.25;4303800;33;33715;-61
2023/06/23 01:39:07;;;;;;;12.98;8.82;;;;;;;28.02;55.74;99355.69;4307020;33;34731;-60
2023/06/23 01:41:52;;;;;;;13.32;8.35;;;;;;;27.84;56.23;99355.81;4303093;33;33677;-60
2023/06/23 01:44:22;;;;;;;11.23;8.05;;;;;;;28.06;55.55;99364.34;4318774;33;34134;-61
2023/06/23 01:46:55;;;;;;;12.32;9.13;;;;;;;28.08;55.48;99376.75;4331967;33;33572;-60
2023/06/23 01:49:31;;;;;;;11.80;8.40;;;;;;;28.06;55.54;99378.91;4339315;32;33832;-60
2023/06/23 01:52:00;;;;;;;12.60;9.82;;;;;;;28.26;55.01;99395.06;4344831;32;33915;-60
2023/06/23 01:54:28;;;;;;;12.82;8.35;;;;;;;28.32;54.82;99407.88;4335195;32;33434;-60
2023/06/23 01:56:56;;;;;;;15.30;9.32;;;;;;;28.44;54.50;99399.63;4337016;32;33564;-61
2023/06/23 01:59:24;;;;;;;14.48;9.75;;;;;;;28.32;54.61;99388.63;4337737;32;32214;-60
2023/06/23 02:01:52;;;;;;;15.27;9.55;;;;;;;28.47;54.29;99392.81;4333337;32;33824;-60
2023/06/23 02:04:20;;;;;;;13.68;9.45;;;;;;;28.47;54.25;99385.41;4342305;32;33252;-60
2023/06/23 02:06:50;;;;;;;11.30;8.57;;;;;;;28.55;53.99;99389.72;4338145;32;33490;-59
2023/06/23 02:09:23;;;;;;;13.40;9.48;;;;;;;28.63;53.66;99396.75;4336870;32;34088;-58
2023/06/23 02:11:52;;;;;;;12.60;9.30;;;;;;;28.55;53.78;99396.06;4338981;32;34897;-57
2023/06/23 02:14:20;;;;;;;11.52;9.18;;;;;;;28.63;53.56;99396.75;4347412;32;33746;-57
2023/06/23 02:16:49;;;;;;;13.30;8.10;;;;;;;28.42;54.08;99389.97;4332621;32;33934;-58
2023/06/23 02:19:18;;;;;;;11.32;8.40;;;;;;;28.27;54.54;99388.47;4348039;32;35298;-57
2023/06/23 02:21:46;;;;;;;15.32;9.15;;;;;;;28.21;54.69;99386.69;4341248;32;34170;-58
2023/06/23 02:24:14;;;;;;;13.95;8.30;;;;;;;28.15;54.83;99390.38;4351246;32;33974;-59
2023/06/23 02:26:43;;;;;;;15.23;9.35;;;;;;;28.19;54.75;99390.78;4335327;33;32630;-58
2023/06/23 02:29:10;;;;;;;11.88;8.65;;;;;;;27.95;55.37;99390.72;4326005;33;34139;-58
2023/06/23 02:31:38;;;;;;;14.30;8.82;;;;;;;27.98;55.28;99389.41;4331242;33;33710;-58
2023/06/23 02:34:05;;;;;;;11.23;7.85;;;;;;;28.04;55.09;99392.06;4334408;33;34736;-58
2023/06/23 02:36:49;;;;;;;14.82;9.60;;;;;;;27.92;55.30;99388.44;4341917;33;33780;-59
2023/06/23 02:39:18;;;;;;;14.80;8.68;;;;;;;28.00;55.17;99381.78;4290783;33;33581;-58
2023/06/23 02:41:51;;;;;;;13.10;8.70;;;;;;;28.15;54.71;99381.31;4285110;33;35035;-57
2023/06/23 02:44:26;;;;;;;13.15;8.85;;;;;;;28.13;54.70;99383.47;4285380;33;33922;-57
2023/06/23 02:46:57;;;;;;;13.38;8.23;;;;;;;28.11;54.82;99378.19;4295975;33;34094;-59
2023/06/23 02:49:28;;;;;;;12.00;8.07;;;;;;;28.21;54.50;99366.59;4281833;33;33584;-58
2023/06/23 02:51:59;;;;;;;12.65;8.82;;;;;;;28.15;54.59;99378.53;4286713;33;33954;-57
2023/06/23 02:54:32;;;;;;;15.48;8.10;;;;;;;28.01;54.87;99367.78;4295057;33;34660;-57
2023/06/23 02:57:00;;;;;;;17.15;8.65;;;;;;;27.95;55.04;99368.72;4299456;33;33574;-57
2023/06/23 02:59:30;;;;;;;10.27;7.62;;;;;;;27.99;54.95;99369.06;4297390;33;33961;-57
2023/06/23 03:01:59;;;;;;;11.05;8.52;;;;;;;27.91;55.15;99370.28;4265721;33;34379;-57
2023/06/23 03:04:30;;;;;;;11.35;7.93;;;;;;;28.04;54.85;99371.97;4272155;33;33529;-57
2023/06/23 03:06:58;;;;;;;14.52;8.27;;;;;;;28.00;54.83;99374.38;4274085;33;34618;-57
2023/06/23 03:09:26;;;;;;;13.43;9.07;;;;;;;27.95;55.01;99373.38;4281221;33;35234;-57
2023/06/23 03:11:54;;;;;;;13.65;9.20;;;;;;;27.93;54.99;99376.41;4317183;33;33919;-57
2023/06/23 03:14:21;;;;;;;12.45;8.48;;;;;;;28.06;54.59;99384.41;4317850;33;34719;-58
2023/06/23 03:17:03;;;;;;;13.80;8.18;;;;;;;28.12;54.48;99384.53;4315424;33;34812;-57
2023/06/23 03:19:40;;;;;;;13.68;7.57;;;;;;;28.19;54.18;99394.34;4317439;33;33953;-57
2023/06/23 03:22:14;;;;;;;14.70;8.18;;;;;;;28.21;54.08;99399.59;4314173;33;34004;-57
2023/06/23 03:24:45;;;;;;;10.85;7.18;;;;;;;28.22;54.02;99382.00;4290052;33;33370;-58
2023/06/23 03:27:13;;;;;;;9.35;6.57;;;;;;;28.15;54.20;99389.56;4277542;33;34005;-58
2023/06/23 03:29:47;;;;;;;15.98;8.45;;;;;;;28.09;54.23;99403.19;4263801;33;34076;-58
2023/06/23 03:32:16;;;;;;;;;;;;;;;28.06;54.34;99411.09;4273309;33;34054;-57
2023/06/23 03:34:52;;;;;;;10.60;7.50;;;;;;;28.12;54.19;99418.38;4282573;33;33769;-57
2023/06/23 03:37:22;;;;;;;10.48;7.37;;;;;;;28.13;54.13;99409.06;4289358;33;32431;-57
2023/06/23 03:39:55;;;;;;;15.38;6.93;;;;;;;28.02;54.44;99416.19;4285896;33;35258;-57
2023/06/23 03:42:23;;;;;;;10.70;8.07;;;;;;;28.06;54.44;99411.09;4280509;33;34912;-57
2023/06/23 03:44:52;;;;;;;13.80;7.37;;;;;;;28.08;54.46;99411.66;4286479;33;33720;-57
2023/06/23 03:47:21;;;;;;;11.68;7.18;;;;;;;28.14;54.36;99398.87;4284255;33;34873;-57
2023/06/23 03:49:56;;;;;;;11.57;7.55;;;;;;;28.13;54.34;99391.72;4287061;33;35655;-57
2023/06/23 03:52:26;;;;;;;12.75;8.63;;;;;;;28.14;54.31;99399.72;4277964;33;34086;-57
2023/06/23 03:54:54;;;;;;;11.05;6.95;;;;;;;28.20;54.08;99400.69;4306965;33;35303;-57
2023/06/23 03:57:27;;;;;;;12.85;7.87;;;;;;;28.12;54.27;99421.13;4305776;32;33934;-58
2023/06/23 03:59:55;;;;;;;11.18;7.45;;;;;;;28.21;54.05;99416.94;4339452;32;34133;-57
2023/06/23 04:02:24;;;;;;;11.80;8.15;;;;;;;28.39;53.62;99418.78;4351753;32;33965;-57
2023/06/23 04:04:54;;;;;;;10.60;7.53;;;;;;;28.41;53.57;99424.06;4341709;32;33683;-57
2023/06/23 04:07:23;;;;;;;17.27;8.60;;;;;;;28.45;53.59;99431.59;4340960;32;33914;-57
2023/06/23 04:09:52;;;;;;;19.40;8.10;;;;;;;28.44;53.41;99427.16;4317363;33;33682;-58
2023/06/23 04:12:20;;;;;;;11.00;7.05;;;;;;;28.45;53.51;99423.34;4317380;33;34641;-58
2023/06/23 04:14:51;;;;;;;13.45;8.48;;;;;;;28.33;53.69;99417.81;4327348;33;33291;-57
2023/06/23 04:17:22;;;;;;;17.25;8.27;;;;;;;28.33;53.90;99422.47;4325382;33;33863;-57
2023/06/23 04:19:56;;;;;;;13.18;7.65;;;;;;;28.39;53.68;99427.03;4323620;33;33940;-57
2023/06/23 04:22:27;;;;;;;13.13;8.30;;;;;;;28.40;53.52;99425.12;4316494;33;34039;-57
2023/06/23 04:24:55;;;;;;;9.80;7.72;;;;;;;28.26;53.66;99422.59;4313624;33;33158;-57
2023/06/23 04:27:25;;;;;;;14.02;8.38;;;;;;;28.06;54.47;99422.94;4318542;33;35527;-57
2023/06/23 04:29:54;;;;;;;10.02;7.43;;;;;;;28.21;54.45;99413.38;4315479;33;34102;-57
2023/06/23 04:32:22;;;;;;;16.37;8.85;;;;;;;28.34;54.01;99415.88;4320066;33;34285;-57
2023/06/23 04:34:50;;;;;;;12.90;8.00;;;;;;;28.36;53.94;99423.91;4320508;33;33563;-57
2023/06/23 04:37:26;;;;;;;13.10;9.20;;;;;;;28.34;53.77;99421.37;4307785;33;33675;-57
2023/06/23 04:39:58;;;;;;;12.13;8.30;;;;;;;28.30;53.94;99414.69;4318703;33;33524;-57
2023/06/23 04:42:41;;;;;;;13.00;8.15;;;;;;;28.23;54.25;99413.97;4313914;33;34087;-57
2023/06/23 04:45:14;;;;;;;14.10;8.90;;;;;;;28.41;53.81;99413.91;4311907;33;34357;-57
2023/06/23 04:47:43;;;;;;;17.08;8.30;;;;;;;28.29;53.70;99418.53;4333268;32;33493;-57
2023/06/23 04:50:14;;;;;;;13.75;6.95;;;;;;;28.29;53.97;99411.09;4336008;32;34230;-57
2023/06/23 04:52:46;;;;;;;12.85;8.52;;;;;;;28.04;54.41;99399.47;4333320;32;34620;-57
2023/06/23 04:55:18;;;;;;;12.57;8.10;;;;;;;28.16;54.48;99419.59;4343661;32;34836;-57
2023/06/23 04:57:48;;;;;;;14.32;8.32;;;;;;;28.30;54.04;99421.03;4345059;32;33632;-57
2023/06/23 05:00:21;;;;;;;10.82;7.35;;;;;;;27.98;54.70;99409.50;4330821;32;32852;-57
2023/06/23 05:02:49;;;;;;;15.57;7.93;;;;;;;28.35;54.13;99409.31;4333595;33;34202;-57
2023/06/23 05:05:23;;;;;;;12.30;7.62;;;;;;;28.45;53.79;99414.25;4336586;32;34755;-57
2023/06/23 05:07:52;;;;;;;12.55;7.60;;;;;;;28.43;53.47;99420.00;4351604;32;34677;-57
2023/06/23 05:10:21;;;;;;;11.30;8.13;;;;;;;28.47;53.18;99412.09;4304881;33;33872;-57
2023/06/23 05:12:50;;;;;;;9.20;6.30;;;;;;;28.24;53.97;99408.22;4307400;33;32692;-57
2023/06/23 05:15:19;;;;;;;11.35;7.20;;;;;;;28.38;53.82;99406.09;4305901;33;33627;-57
2023/06/23 05:17:53;;;;;;;11.93;7.47;;;;;;;28.64;53.02;99401.22;4318397;33;34283;-57
2023/06/23 05:20:23;;;;;;;10.27;6.97;;;;;;;28.73;52.82;99408.88;4321500;33;34049;-57
2023/06/23 05:22:54;;;;;;;14.43;8.80;;;;;;;28.93;51.99;99413.97;4303265;33;33805;-58
2023/06/23 05:25:23;;;;;;;14.30;8.95;;;;;;;28.99;52.32;99414.94;4303594;33;33528;-57
2023/06/23 05:28:01;;;;;;;11.18;8.68;;;;;;;29.13;51.99;99418.28;4306713;33;33798;-57
2023/06/23 05:30:37;;;;;;;9.27;7.28;;;;;;;28.94;51.99;99414.81;4315176;33;34108;-57
2023/06/23 05:33:08;;;;;;;19.08;9.18;;;;;;;29.09;51.08;99419.84;4325536;33;35138;-57
2023/06/23 05:35:37;;;;;;;11.12;6.43;;;;;;;29.22;50.74;99414.06;4307852;33;34942;-57
2023/06/23 05:38:06;;;;;;;14.93;7.75;;;;;;;29.27;51.28;99421.56;4328445;33;33675;-57
2023/06/23 05:40:33;;;;;;;14.23;8.02;;;;;;;29.46;50.84;99418.38;4327561;33;34939;-57
2023/06/23 05:43:01;;;;;;;12.15;7.87;;;;;;;29.61;50.56;99419.81;4319513;33;34875;-57
2023/06/23 05:45:33;;;;;;;13.93;9.55;;;;;;;29.71;50.56;99425.50;4309308;33;34659;-58
2023/06/23 05:48:22;;;;;;;17.25;8.65;;;;;;;29.74;49.76;99422.25;4338540;32;33807;-61
2023/06/23 05:51:00;;;;;;;13.45;8.75;;;;;;;29.69;49.85;99413.87;4344843;32;35224;-63
2023/06/23 05:53:34;;;;;;;15.63;10.40;;;;;;;29.65;49.68;99410.78;4332814;32;113329;-58
2023/06/23 05:56:05;;;;;;;12.40;8.38;;;;;;;29.46;50.28;99418.38;4332818;32;34147;-57
2023/06/23 05:58:34;;;;;;;13.73;7.60;;;;;;;29.66;50.41;99417.97;4338738;32;33930;-57
2023/06/23 06:01:05;;;;;;;18.92;8.25;;;;;;;29.78;50.09;99414.31;4331941;32;34047;-57
2023/06/23 06:03:37;;;;;;;13.38;9.07;;;;;;;29.77;50.02;99402.44;4340257;32;34020;-57
2023/06/23 06:06:06;;;;;;;15.02;10.23;;;;;;;29.42;50.58;99397.06;4338994;32;33713;-58
2023/06/23 06:08:35;;;;;;;13.52;9.23;;;;;;;29.42;51.36;99405.34;4350634;32;33746;-58
2023/06/23 06:11:04;;;;;;;11.75;7.87;;;;;;;29.65;50.25;99404.44;4333108;32;34938;-58
2023/06/23 06:13:35;;;;;;;12.32;8.88;;;;;;;29.57;50.42;99402.06;4347887;32;33782;-59
2023/06/23 06:16:04;;;;;;;12.40;8.90;;;;;;;29.77;50.19;99405.19;4335049;32;32407;-58
2023/06/23 06:18:33;;;;;;;15.85;10.20;;;;;;;29.91;49.58;99392.75;4332090;32;33498;-59
2023/06/23 06:21:00;;;;;;;15.82;11.38;;;;;;;29.87;49.61;99380.56;4347420;32;34507;-58
2023/06/23 06:23:30;;;;;;;15.32;10.35;;;;;;;29.63;51.17;99379.00;4355958;32;34287;-57
2023/06/23 06:25:59;;;;;;;16.33;9.38;;;;;;;29.85;51.54;99379.94;4340779;32;35668;-58
2023/06/23 06:28:26;;;;;;;15.23;11.55;;;;;;;29.90;50.19;99371.78;4341735;32;33520;-58
2023/06/23 06:31:12;;;;;;;15.35;9.10;;;;;;;29.80;50.30;99370.78;4348294;32;33810;-58
2023/06/23 06:33:42;;;;;;;14.13;9.38;;;;;;;29.58;51.45;99376.16;4353597;32;33858;-58
2023/06/23 06:36:11;;;;;;;13.23;11.10;;;;;;;29.70;51.76;99371.44;4334445;32;33173;-58
2023/06/23 06:38:38;;;;;;;16.62;8.98;;;;;;;30.05;51.04;99364.81;4334159;33;34656;-58
2023/06/23 06:41:07;;;;;;;13.05;9.75;;;;;;;30.04;50.18;99358.47;4343990;32;33798;-58
2023/06/23 06:43:35;;;;;;;19.55;12.05;;;;;;;30.08;50.12;99356.91;4356265;32;34276;-58
2023/06/23 06:46:04;;;;;;;16.58;9.80;;;;;;;30.14;50.12;99355.03;4345428;32;33714;-58
2023/06/23 06:48:33;;;;;;;14.30;10.77;;;;;;;30.04;49.72;99352.13;4335712;33;34731;-58
2023/06/23 06:51:02;;;;;;;14.85;9.60;;;;;;;30.17;50.22;99346.25;4350696;32;34576;-58
2023/06/23 06:53:30;;;;;;;12.00;9.70;;;;;;;30.06;51.03;99347.19;4348615;32;34128;-58
2023/06/23 06:55:58;;;;;;;24.42;9.75;;;;;;;30.26;50.06;99361.34;4345924;32;33343;-58
2023/06/23 06:58:26;;;;;;;17.12;11.65;;;;;;;30.23;50.52;99364.59;4348492;32;34185;-58
2023/06/23 07:00:54;;;;;;;14.15;11.07;;;;;;;29.94;50.43;99375.69;4329047;32;34180;-59
2023/06/23 07:03:21;;;;;;;18.05;10.40;;;;;;;30.27;49.62;99368.53;4337934;32;33596;-58
2023/06/23 07:05:49;;;;;;;14.68;9.90;;;;;;;30.23;50.10;99367.34;4346144;32;31999;-58
2023/06/23 07:08:17;;;;;;;17.08;10.48;;;;;;;30.38;49.51;99372.28;4353103;32;33752;-58
2023/06/23 07:10:44;;;;;;;18.35;10.65;;;;;;;30.49;48.84;99371.34;4347107;32;33883;-58
2023/06/23 07:13:12;;;;;;;17.83;12.95;;;;;;;30.22;50.15;99373.16;4354669;32;33566;-58
2023/06/23 07:15:39;;;;;;;13.95;10.30;;;;;;;30.09;50.73;99372.38;4349185;32;33524;-58
2023/06/23 07:18:07;;;;;;;19.95;13.27;;;;;;;30.26;50.27;99366.03;4345522;32;33390;-58
2023/06/23 07:20:35;;;;;;;21.70;11.70;;;;;;;30.31;51.25;99366.13;4349530;32;34336;-58
2023/06/23 07:23:03;;;;;;;13.25;9.45;;;;;;;30.71;50.22;99356.72;4346422;32;33975;-58
2023/06/23 07:25:35;;;;;;;16.85;12.65;;;;;;;30.85;49.21;99364.41;4348458;32;34969;-58
2023/06/23 07:28:03;;;;;;;14.65;11.15;;;;;;;30.83;49.36;99358.31;4346772;32;35536;-57
2023/06/23 07:30:30;;;;;;;17.08;10.32;;;;;;;30.97;48.65;99355.97;4348250;32;34933;-57
2023/06/23 07:32:58;;;;;;;16.35;12.30;;;;;;;30.93;49.37;99360.34;4365000;32;33749;-58
2023/06/23 07:35:26;;;;;;;16.58;10.57;;;;;;;30.92;49.71;99355.94;4370346;32;34710;-58
2023/06/23 07:37:53;;;;;;;15.32;8.93;;;;;;;31.20;48.50;99357.62;4365114;32;34756;-58
2023/06/23 07:40:21;;;;;;;16.65;10.93;;;;;;;31.16;48.96;99361.19;4363878;32;32710;-57
2023/06/23 07:42:49;;;;;;;15.48;11.68;;;;;;;31.34;47.78;99360.03;4361050;32;33999;-59
2023/06/23 07:45:16;;;;;;;17.67;14.80;;;;;;;31.17;49.17;99362.84;4358846;32;33035;-58
2023/06/23 07:47:44;;;;;;;17.80;13.82;;;;;;;31.16;48.50;99361.19;4353666;32;36215;-58
2023/06/23 07:50:11;;;;;;;21.58;12.32;;;;;;;31.47;47.34;99359.63;4344942;32;34172;-58
2023/06/23 07:52:39;;;;;;;20.37;12.45;;;;;;;31.22;47.83;99354.63;4344201;32;33735;-61
2023/06/23 07:55:07;;;;;;;13.23;10.23;;;;;;;31.17;48.03;99360.06;4349845;32;33733;-60
2023/06/23 07:57:35;;;;;;;20.85;13.50;;;;;;;31.51;47.50;99358.81;4351104;32;34014;-61
2023/06/23 08:00:03;;;;;;;21.05;12.50;;;;;;;31.66;47.46;99360.09;4342481;32;35145;-61
2023/06/23 08:02:41;;;;;;;16.92;12.65;;;;;;;31.62;48.76;99365.31;4356154;32;33785;-58
2023/06/23 08:05:09;;;;;;;21.98;14.48;;;;;;;31.74;48.25;99360.41;4354316;32;34072;-58
2023/06/23 08:07:37;;;;;;;18.15;13.68;;;;;;;31.58;49.12;99358.63;4360064;32;33905;-58
2023/06/23 08:10:04;;;;;;;16.40;13.65;;;;;;;31.67;46.91;99358.97;4360185;32;33675;-58
2023/06/23 08:12:35;;;;;;;20.30;14.27;;;;;;;31.79;46.82;99352.19;4360099;32;34252;-58
2023/06/23 08:15:05;;;;;;;22.55;13.38;;;;;;;31.72;47.75;99357.09;4354976;32;33234;-58
2023/06/23 08:17:35;;;;;;;18.55;12.23;;;;;;;31.76;47.33;99358.25;4360621;32;33935;-57
2023/06/23 08:20:03;;;;;;;19.83;14.40;;;;;;;31.83;47.22;99360.78;4350705;32;34094;-58
2023/06/23 08:22:38;;;;;;;17.58;13.48;;;;;;;32.04;46.95;99361.84;4352120;32;34318;-58
2023/06/23 08:25:07;;;;;;;19.48;12.95;;;;;;;31.73;47.93;99358.75;4352254;32;34470;-58
2023/06/23 08:27:35;;;;;;;16.00;12.82;;;;;;;32.24;46.88;99353.66;4353789;32;32505;-58
2023/06/23 08:30:03;;;;;;;19.05;14.93;;;;;;;32.39;46.41;99344.63;4348786;32;34915;-58
2023/06/23 08:32:31;;;;;;;20.73;15.57;;;;;;;32.45;46.64;99342.75;4342431;32;35002;-58
2023/06/23 08:34:59;;;;;;;20.98;14.82;;;;;;;32.61;45.50;99350.03;4351556;32;34877;-58
2023/06/23 08:37:27;;;;;;;19.70;14.32;;;;;;;31.95;46.78;99352.34;4346974;32;33486;-58
2023/06/23 08:39:57;;;;;;;17.12;14.05;;;;;;;32.27;46.69;99357.84;4348334;32;34019;-58
2023/06/23 08:42:25;;;;;;;20.62;14.65;;;;;;;32.61;46.49;99360.28;4347728;32;34758;-58
2023/06/23 08:44:55;;;;;;;17.00;15.25;;;;;;;32.44;46.14;99353.00;4345031;32;35054;-58
2023/06/23 08:47:25;;;;;;;17.75;15.75;;;;;;;32.46;46.58;99350.78;4356769;32;33713;-58
2023/06/23 08:49:53;;;;;;;20.08;13.75;;;;;;;32.74;45.27;99357.03;4358501;32;33476;-59
2023/06/23 08:52:21;;;;;;;17.40;14.98;;;;;;;32.76;45.48;99351.22;4361809;32;34324;-58
2023/06/23 08:54:48;;;;;;;17.48;13.48;;;;;;;32.77;44.15;99353.72;4348710;32;32532;-58
2023/06/23 08:57:16;;;;;;;18.75;13.88;;;;;;;32.79;45.16;99353.47;4344342;32;33216;-58
2023/06/23 08:59:44;;;;;;;19.08;13.70;;;;;;;32.26;46.34;99358.94;4344028;32;34274;-59
2023/06/23 09:02:13;;;;;;;18.02;13.57;;;;;;;32.47;46.27;99354.41;4352754;32;34830;-59
2023/06/23 09:05:01;;;;;;;18.75;14.57;;;;;;;32.85;45.96;99366.25;4357680;32;32346;-58
2023/06/23 09:07:29;;;;;;;16.55;12.60;;;;;;;32.79;45.16;99368.16;4370289;32;33620;-58
2023/06/23 09:09:57;;;;;;;18.23;12.88;;;;;;;33.05;44.63;99371.88;4324969;33;33777;-58
2023/06/23 09:12:25;;;;;;;18.30;12.73;;;;;;;33.10;44.50;99366.38;4333268;32;32197;-58
2023/06/23 09:14:57;;;;;;;21.75;15.38;;;;;;;32.91;45.99;99356.84;4338589;32;34490;-58
2023/06/23 09:17:26;;;;;;;18.95;13.20;;;;;;;32.66;46.22;99363.91;4325272;32;33775;-58
2023/06/23 09:19:54;;;;;;;19.02;15.38;;;;;;;33.13;45.59;99374.16;4325469;32;34765;-58
2023/06/23 09:22:22;;;;;;;19.95;13.95;;;;;;;33.40;44.88;99365.62;4338924;32;33667;-58
2023/06/23 09:24:50;;;;;;;14.50;10.98;;;;;;;33.35;45.47;99368.37;4324060;32;33032;-58
2023/06/23 09:27:18;;;;;;;17.02;14.85;;;;;;;33.64;44.61;99367.91;4335680;32;34469;-59
2023/06/23 09:29:59;;;;;;;19.62;12.88;;;;;;;33.54;44.91;99363.16;4339621;32;33899;-58
2023/06/23 09:32:28;;;;;;;21.40;14.85;;;;;;;33.60;45.61;99361.25;4331313;32;34763;-58
2023/06/23 09:34:56;;;;;;;16.52;14.25;;;;;;;33.72;45.44;99366.53;4339103;32;35485;-58
2023/06/23 09:37:24;;;;;;;17.02;14.98;;;;;;;33.49;46.01;99368.72;4334185;32;35575;-58
2023/06/23 09:46:32;;;;;;;19.90;12.32;;;;;;;33.84;44.11;99376.25;4353758;32;34147;-58
2023/06/23 09:49:01;;;;;;;14.52;13.00;;;;;;;34.15;43.70;99381.00;4357542;32;34013;-58
2023/06/23 09:51:28;;;;;;;18.42;12.65;;;;;;;34.08;43.62;99376.56;4363825;32;34974;-58
2023/06/23 09:53:57;;;;;;;19.83;11.82;;;;;;;34.19;43.41;99385.72;4345882;32;33838;-58
2023/06/23 09:56:25;;;;;;;17.55;12.82;;;;;;;34.56;43.48;99392.91;4349781;32;34124;-58
2023/06/23 09:58:53;;;;;;;18.87;12.68;;;;;;;34.38;43.57;99391.50;4356155;32;35895;-58
2023/06/23 10:01:21;;;;;;;18.62;13.48;;;;;;;34.30;44.07;99387.38;4331625;32;34451;-58
2023/06/23 10:03:50;;;;;;;20.35;13.90;;;;;;;34.41;42.95;99384.56;4344629;32;33831;-58
2023/06/23 10:09:24;;;;;;;18.60;12.25;;;;;;;34.32;43.41;99381.56;4350062;32;34553;-58
2023/06/23 10:11:51;;;;;;;18.05;14.30;;;;;;;34.29;43.30;99382.94;4344769;32;35215;-58
2023/06/23 10:14:20;;;;;;;16.67;12.65;;;;;;;34.27;44.77;99390.72;4346957;32;34051;-58
2023/06/23 10:16:53;;;;;;;20.02;13.93;;;;;;;34.08;44.45;99389.59;4347517;32;34426;-58
2023/06/23 10:19:20;;;;;;;20.12;13.60;;;;;;;34.42;42.67;99381.53;4352307;32;33663;-58
2023/06/23 10:21:49;;;;;;;18.77;12.75;;;;;;;34.70;42.30;99377.31;4357801;32;33669;-58
2023/06/23 10:24:18;;;;;;;27.45;13.55;;;;;;;34.69;41.42;99384.00;4337937;32;34363;-58
2023/06/23 10:26:50;;;;;;;14.43;12.75;;;;;;;34.56;42.28;99379.03;4345855;33;34296;-58
2023/06/23 10:29:18;;;;;;;17.67;11.23;;;;;;;34.93;41.25;99380.56;4351242;32;35487;-58
2023/06/23 10:31:46;;;;;;;16.20;12.30;;;;;;;35.06;41.20;99380.00;4345186;32;34311;-58
2023/06/23 10:34:15;;;;;;;17.33;12.40;;;;;;;35.28;41.00;99385.16;4338463;32;33916;-58
2023/06/23 10:36:48;;;;;;;21.23;14.57;;;;;;;34.96;42.52;99374.44;4332562;32;34654;-58
2023/06/23 10:39:16;;;;;;;18.00;14.05;;;;;;;34.98;42.48;99370.25;4346017;33;33682;-58
2023/06/23 10:41:45;;;;;;;17.48;13.90;;;;;;;35.73;41.71;99386.03;4313996;33;34026;-58
2023/06/23 10:44:15;;;;;;;19.27;13.00;;;;;;;35.13;41.77;99371.34;4314442;33;35054;-58
2023/06/23 10:46:43;;;;;;;17.62;13.88;;;;;;;34.53;42.58;99365.69;4322835;33;33516;-58
2023/06/23 10:49:11;;;;;;;18.90;14.38;;;;;;;35.42;39.58;99360.34;4318851;33;33667;-59
2023/06/23 10:51:39;;;;;;;18.15;14.00;;;;;;;35.02;40.15;99362.19;4307254;33;33919;-58
2023/06/23 10:54:07;;;;;;;17.05;13.07;;;;;;;35.56;40.32;99360.56;4313364;33;34135;-58
2023/06/23 10:56:43;;;;;;;19.65;12.77;;;;;;;35.22;38.83;99351.00;4313826;33;33337;-58
2023/06/23 10:59:27;;;;;;;15.07;12.85;;;;;;;35.01;39.14;99353.00;4312932;33;34735;-58
2023/06/23 11:02:01;;;;;;;15.50;12.18;;;;;;;35.09;39.21;99359.13;4321394;33;34913;-58
2023/06/23 11:04:38;;;;;;;16.77;10.77;;;;;;;35.07;38.63;99353.84;4317171;33;34085;-58
2023/06/23 11:07:07;;;;;;;19.50;10.93;;;;;;;35.01;38.61;99353.00;4317308;33;34183;-58
2023/06/23 11:09:54;;;;;;;18.55;11.52;;;;;;;35.18;38.14;99347.09;4320966;33;34986;-58
2023/06/23 11:12:39;;;;;;;18.62;11.43;;;;;;;35.57;37.89;99349.16;4338347;32;33705;-58
2023/06/23 11:15:15;;;;;;;;;;;;;;;35.71;37.42;99354.88;4352017;32;34000;-58
2023/06/23 11:18:04;;;;;;;16.75;13.40;;;;;;;35.66;36.50;99349.34;4344356;32;33556;-59
2023/06/23 11:20:37;;;;;;;18.98;12.57;;;;;;;35.58;37.52;99344.41;4349482;32;34869;-58
2023/06/23 11:23:06;;;;;;;23.87;11.93;;;;;;;35.37;38.77;99338.94;4349000;32;35135;-58
2023/06/23 11:25:38;;;;;;;17.67;11.20;;;;;;;35.62;38.68;99337.97;4352131;32;35157;-59
2023/06/23 11:28:28;;;;;;;17.25;12.48;;;;;;;35.50;39.46;99340.22;4354837;32;33771;-58
2023/06/23 11:30:59;;;;;;;17.42;11.12;;;;;;;35.65;38.37;99337.37;4353399;32;33389;-59
2023/06/23 11:34:03;;;;;;;16.77;11.15;;;;;;;35.06;39.34;99334.66;4353723;32;34924;-58
2023/06/23 11:36:31;;;;;;;16.98;12.75;;;;;;;35.65;38.37;99329.03;4306786;33;33677;-58
2023/06/23 11:39:00;;;;;;;19.98;13.02;;;;;;;35.39;40.82;99333.09;4290811;33;33688;-58
2023/06/23 11:41:29;;;;;;;21.37;13.62;;;;;;;35.68;40.87;99330.41;4289732;33;34646;-58
2023/06/23 11:44:02;;;;;;;18.75;12.52;;;;;;;35.64;41.75;99324.59;4293846;33;33941;-59
2023/06/23 11:46:31;;;;;;;19.45;13.85;;;;;;;35.22;42.65;99319.56;4294457;33;33572;-59